createdAt,value
2023-03-01T00:02:13.900Z,100369.97
2023-03-01T00:04:40.561Z,100381.00
2023-03-01T00:07:07.224Z,100377.09
2023-03-01T00:09:34.037Z,100380.31
2023-03-01T00:12:09.155Z,100392.94
2023-03-01T00:14:36.645Z,100389.91
2023-03-01T00:17:05.895Z,100386.09
2023-03-01T00:19:38.573Z,100384.91
2023-03-01T00:22:11.512Z,100375.03
2023-03-01T00:24:42.955Z,100367.91
2023-03-01T00:27:11.031Z,100369.53
2023-03-01T00:29:42.727Z,100377.06
2023-03-01T00:32:14.537Z,100382.19
2023-03-01T00:34:44.006Z,100381.34
2023-03-01T00:37:16.279Z,100386.53
2023-03-01T00:39:43.024Z,100385.44
2023-03-01T00:42:16.920Z,100383.56
2023-03-01T00:44:45.805Z,100378.81
2023-03-01T00:47:14.716Z,100373.19
2023-03-01T00:49:41.792Z,100374.41
2023-03-01T00:52:09.801Z,100369.41
2023-03-01T00:54:42.964Z,100363.44
2023-03-01T00:57:09.666Z,100364.13
2023-03-01T00:59:48.130Z,100365.59
2023-03-01T01:02:16.486Z,100354.47
2023-03-01T01:04:43.139Z,100356.72
2023-03-01T01:07:11.918Z,100360.56
2023-03-01T01:09:38.906Z,100351.31
2023-03-01T01:12:06.034Z,100349.78
2023-03-01T01:14:41.511Z,100345.59
2023-03-01T01:17:13.649Z,100355.47
2023-03-01T01:19:43.488Z,100346.06
2023-03-01T01:22:13.071Z,100351.03
2023-03-01T01:24:39.789Z,100336.31
2023-03-01T01:27:09.645Z,100331.66
2023-03-01T01:29:36.779Z,100335.00
2023-03-01T01:32:05.113Z,100329.47
2023-03-01T01:34:31.848Z,100337.00
2023-03-01T01:37:03.672Z,100332.31
2023-03-01T01:39:33.671Z,100330.03
2023-03-01T01:42:02.858Z,100326.06
2023-03-01T01:44:36.912Z,100324.28
2023-03-01T01:47:09.720Z,100331.78
2023-03-01T01:49:58.218Z,100330.56
2023-03-01T01:52:32.905Z,100325.88
2023-03-01T01:55:24.054Z,100322.28
2023-03-01T01:57:54.378Z,100325.25
2023-03-01T02:00:24.368Z,100322.34
2023-03-01T02:03:10.152Z,100322.94
2023-03-01T02:05:59.648Z,100324.34
2023-03-01T02:08:37.149Z,100319.06
2023-03-01T02:11:05.299Z,100319.53
2023-03-01T02:13:34.371Z,100322.03
2023-03-01T02:16:05.278Z,100319.00
2023-03-01T02:18:34.237Z,100309.91
2023-03-01T02:21:11.380Z,100312.00
2023-03-01T02:23:40.992Z,100313.88
2023-03-01T02:26:16.478Z,100306.53
2023-03-01T02:28:51.613Z,100308.44
2023-03-01T02:31:40.042Z,100308.44
2023-03-01T02:34:08.615Z,100311.22
2023-03-01T02:36:38.529Z,100298.53
2023-03-01T02:39:08.515Z,100296.88
2023-03-01T02:41:39.132Z,100292.47
2023-03-01T02:44:08.583Z,100291.88
2023-03-01T02:46:47.921Z,100285.53
2023-03-01T02:49:36.629Z,100302.03
2023-03-01T02:52:42.156Z,100289.03
2023-03-01T02:55:19.077Z,100283.78
2023-03-01T02:57:51.941Z,100289.03
2023-03-01T03:00:28.386Z,100276.72
2023-03-01T03:02:58.841Z,100274.63
2023-03-01T03:05:30.690Z,100275.72
2023-03-01T03:07:59.828Z,100276.44
2023-03-01T03:10:32.946Z,100277.28
2023-03-01T03:13:02.042Z,100267.31
2023-03-01T03:15:30.723Z,100270.38
2023-03-01T03:18:01.168Z,100265.13
2023-03-01T03:20:29.756Z,100270.69
2023-03-01T03:23:13.766Z,100272.06
2023-03-01T03:25:43.365Z,100271.22
2023-03-01T03:28:12.860Z,100268.47
2023-03-01T03:30:40.945Z,100267.47
2023-03-01T03:33:13.463Z,100261.38
2023-03-01T03:35:45.837Z,100263.59
2023-03-01T03:38:22.290Z,100261.56
2023-03-01T03:40:55.494Z,100253.66
2023-03-01T03:43:24.318Z,100255.56
2023-03-01T03:45:52.000Z,100260.59
2023-03-01T03:48:24.244Z,100257.25
2023-03-01T03:50:56.053Z,100247.81
2023-03-01T03:53:27.936Z,100263.06
2023-03-01T03:55:57.275Z,100263.78
2023-03-01T03:58:25.169Z,100255.06
2023-03-01T04:00:56.945Z,100252.56
2023-03-01T04:03:29.041Z,100256.75
2023-03-01T04:05:57.911Z,100260.19
2023-03-01T04:08:25.207Z,100255.91
2023-03-01T04:10:54.563Z,100250.47
2023-03-01T04:13:23.272Z,100254.09
2023-03-01T04:15:56.418Z,100259.09
2023-03-01T04:18:25.566Z,100255.06
2023-03-01T04:20:53.323Z,100262.69
2023-03-01T04:23:23.132Z,100259.09
2023-03-01T04:25:56.244Z,100252.16
2023-03-01T04:28:28.125Z,100256.47
2023-03-01T04:30:58.417Z,100267.00
2023-03-01T04:33:26.254Z,100261.31
2023-03-01T04:35:55.925Z,100263.00
2023-03-01T04:38:23.106Z,100268.78
2023-03-01T04:40:52.941Z,100265.75
2023-03-01T04:43:22.496Z,100266.69
2023-03-01T04:45:52.442Z,100266.16
2023-03-01T04:48:23.090Z,100267.00
2023-03-01T04:50:50.896Z,100274.47
2023-03-01T04:53:19.699Z,100277.25
2023-03-01T04:55:46.388Z,100277.97
2023-03-01T04:58:15.227Z,100279.88
2023-03-01T05:00:46.829Z,100287.94
2023-03-01T05:03:19.142Z,100279.78
2023-03-01T05:05:47.677Z,100293.94
2023-03-01T05:08:18.409Z,100282.41
2023-03-01T05:10:54.256Z,100285.31
2023-03-01T05:13:22.125Z,100285.19
2023-03-01T05:16:02.239Z,100283.38
2023-03-01T05:18:33.056Z,100287.41
2023-03-01T05:21:06.453Z,100280.47
2023-03-01T05:23:39.461Z,100283.81
2023-03-01T05:26:13.503Z,100288.94
2023-03-01T05:29:07.043Z,100294.22
2023-03-01T05:31:35.602Z,100293.63
2023-03-01T05:34:05.097Z,100289.63
2023-03-01T05:36:32.064Z,100292.00
2023-03-01T05:39:03.008Z,100295.72
2023-03-01T05:41:32.253Z,100298.91
2023-03-01T05:44:00.169Z,100288.94
2023-03-01T05:46:26.810Z,100291.00
2023-03-01T05:48:56.299Z,100292.53
2023-03-01T05:51:27.992Z,100287.53
2023-03-01T05:53:56.822Z,100291.56
2023-03-01T05:56:25.676Z,100296.03
2023-03-01T05:58:55.696Z,100296.03
2023-03-01T06:01:22.343Z,100302.38
2023-03-01T06:03:52.312Z,100305.16
2023-03-01T06:06:18.988Z,100304.91
2023-03-01T06:08:52.000Z,100306.16
2023-03-01T06:11:21.423Z,100305.03
2023-03-01T06:13:53.262Z,100309.59
2023-03-01T06:16:29.520Z,100306.53
2023-03-01T06:18:56.446Z,100307.94
2023-03-01T06:21:29.339Z,100297.75
2023-03-01T06:24:00.293Z,100309.44
2023-03-01T06:26:29.799Z,100302.59
2023-03-01T06:28:59.389Z,100309.84
2023-03-01T06:31:31.603Z,100309.97
2023-03-01T06:34:05.200Z,100313.56
2023-03-01T06:36:32.919Z,100308.28
2023-03-01T06:38:59.598Z,100311.31
2023-03-01T06:41:26.940Z,100314.78
2023-03-01T06:44:03.678Z,100306.31
2023-03-01T06:46:33.346Z,100305.41
2023-03-01T06:49:03.657Z,100315.66
2023-03-01T06:51:31.560Z,100318.50
2023-03-01T06:54:01.720Z,100322.75
2023-03-01T06:56:33.011Z,100312.50
2023-03-01T06:59:03.803Z,100322.06
2023-03-01T07:01:32.792Z,100319.66
2023-03-01T07:03:59.436Z,100315.63
2023-03-01T07:06:26.600Z,100319.81
2023-03-01T07:09:00.934Z,100322.13
2023-03-01T07:11:27.661Z,100320.41
2023-03-01T07:13:56.401Z,100317.31
2023-03-01T07:16:24.350Z,100321.50
2023-03-01T07:18:52.948Z,100314.47
2023-03-01T07:21:19.578Z,100310.91
2023-03-01T07:24:09.690Z,100321.56
2023-03-01T07:26:39.725Z,100321.25
2023-03-01T07:29:08.028Z,100316.41
2023-03-01T07:31:34.734Z,100319.09
2023-03-01T07:34:09.096Z,100311.88
2023-03-01T07:36:40.424Z,100314.75
2023-03-01T07:39:07.624Z,100320.34
2023-03-01T07:41:41.115Z,100321.91
2023-03-01T07:44:08.831Z,100324.94
2023-03-01T07:46:35.485Z,100322.84
2023-03-01T07:49:05.668Z,100317.00
2023-03-01T07:51:34.131Z,100317.59
2023-03-01T07:54:03.503Z,100315.09
2023-03-01T07:56:30.760Z,100317.41
2023-03-01T07:59:13.056Z,100312.16
2023-03-01T08:01:49.280Z,100315.13
2023-03-01T08:04:18.941Z,100317.81
2023-03-01T08:06:46.676Z,100317.00
2023-03-01T08:09:14.248Z,100314.03
2023-03-01T08:11:43.169Z,100308.53
2023-03-01T08:14:10.191Z,100317.97
2023-03-01T08:16:37.631Z,100319.81
2023-03-01T08:19:08.391Z,100319.25
2023-03-01T08:21:38.313Z,100315.34
2023-03-01T08:24:12.754Z,100309.78
2023-03-01T08:26:42.018Z,100306.28
2023-03-01T08:29:08.996Z,100314.44
2023-03-01T08:31:43.294Z,100309.66
2023-03-01T08:34:18.797Z,100302.03
2023-03-01T08:36:47.389Z,100302.50
2023-03-01T08:39:19.324Z,100301.69
2023-03-01T08:41:50.038Z,100302.81
2023-03-01T08:44:26.109Z,100304.81
2023-03-01T08:46:59.515Z,100305.41
2023-03-01T08:49:27.416Z,100313.56
2023-03-01T08:51:57.071Z,100300.09
2023-03-01T08:54:23.865Z,100293.19
2023-03-01T08:56:52.854Z,100283.59
2023-03-01T08:59:26.764Z,100271.09
2023-03-01T09:01:54.700Z,100278.06
2023-03-01T09:04:27.035Z,100264.56
2023-03-01T09:06:56.305Z,100265.47
2023-03-01T09:09:28.515Z,100262.69
2023-03-01T09:12:21.973Z,100261.44
2023-03-01T09:14:48.671Z,100256.88
2023-03-01T09:17:22.548Z,100252.28
2023-03-01T09:19:51.064Z,100249.03
2023-03-01T09:22:17.923Z,100245.25
2023-03-01T09:24:44.782Z,100251.38
2023-03-01T09:27:14.346Z,100243.47
2023-03-01T09:29:49.025Z,100243.31
2023-03-01T09:32:15.841Z,100242.59
2023-03-01T09:35:01.275Z,100240.19
2023-03-01T09:37:29.543Z,100243.13
2023-03-01T09:39:58.861Z,100241.81
2023-03-01T09:42:32.657Z,100240.81
2023-03-01T09:45:06.757Z,100235.63
2023-03-01T09:47:36.909Z,100224.47
2023-03-01T09:50:19.542Z,100221.09
2023-03-01T09:53:04.877Z,100223.09
2023-03-01T09:55:44.927Z,100214.34
2023-03-01T09:58:40.074Z,100209.69
2023-03-01T10:01:33.739Z,100203.97
2023-03-01T10:04:22.178Z,100198.94
2023-03-01T10:07:14.920Z,100196.91
2023-03-01T10:09:43.596Z,100181.53
2023-03-01T10:12:19.542Z,100176.44
2023-03-01T10:14:57.366Z,100181.66
2023-03-01T10:17:34.749Z,100177.97
2023-03-01T10:20:31.678Z,100179.84
2023-03-01T10:23:00.634Z,100171.16
2023-03-01T10:25:30.182Z,100163.13
2023-03-01T10:28:03.811Z,100159.00
2023-03-01T10:30:39.509Z,100157.16
2023-03-01T10:33:44.494Z,100152.31
2023-03-01T10:36:14.288Z,100148.13
2023-03-01T10:39:02.474Z,100145.16
2023-03-01T10:41:33.441Z,100135.63
2023-03-01T10:44:07.209Z,100134.00
2023-03-01T10:46:51.579Z,100129.56
2023-03-01T10:49:23.967Z,100123.69
2023-03-01T10:51:53.229Z,100127.28
2023-03-01T10:54:22.162Z,100117.22
2023-03-01T10:56:57.450Z,100108.41
2023-03-01T10:59:35.438Z,100108.78
2023-03-01T11:02:30.626Z,100109.09
2023-03-01T11:05:02.964Z,100104.28
2023-03-01T11:07:42.039Z,100099.69
2023-03-01T11:10:19.642Z,100099.81
2023-03-01T11:12:46.429Z,100095.47
2023-03-01T11:15:32.482Z,100099.56
2023-03-01T11:18:13.420Z,100093.53
2023-03-01T11:20:47.675Z,100108.38
2023-03-01T11:23:19.364Z,100100.03
2023-03-01T11:25:57.052Z,100087.59
2023-03-01T11:28:27.378Z,100095.56
2023-03-01T11:31:08.161Z,100091.75
2023-03-01T11:33:51.913Z,100083.16
2023-03-01T11:36:36.525Z,100086.28
2023-03-01T11:39:20.484Z,100093.25
2023-03-01T11:41:59.650Z,100097.34
2023-03-01T11:44:44.326Z,100093.31
2023-03-01T11:47:59.660Z,100083.97
2023-03-01T11:50:50.629Z,100086.41
2023-03-01T11:53:35.564Z,100087.25
2023-03-01T11:56:10.078Z,100085.34
2023-03-01T11:59:06.087Z,100084.88
2023-03-01T12:02:13.288Z,100086.00
2023-03-01T12:05:05.074Z,100085.72
2023-03-01T12:07:51.941Z,100084.44
2023-03-01T12:10:29.011Z,100080.09
2023-03-01T12:13:16.475Z,100076.47
2023-03-01T12:16:13.469Z,100072.78
2023-03-01T12:19:09.857Z,100061.53
2023-03-01T12:22:18.345Z,100067.81
2023-03-01T12:24:49.463Z,100070.94
2023-03-01T12:27:41.681Z,100071.16
2023-03-01T12:30:41.106Z,100061.09
2023-03-01T12:33:31.692Z,100055.63
2023-03-01T12:36:42.509Z,100054.09
2023-03-01T12:39:37.488Z,100053.63
2023-03-01T12:42:49.183Z,100049.44
2023-03-01T12:45:52.138Z,100044.50
2023-03-01T12:48:28.242Z,100041.88
2023-03-01T12:50:58.900Z,100045.03
2023-03-01T12:53:37.333Z,100038.63
2023-03-01T12:56:27.971Z,100035.16
2023-03-01T12:59:18.724Z,100029.31
2023-03-01T13:02:07.236Z,100040.47
2023-03-01T13:04:55.735Z,100039.22
2023-03-01T13:07:39.302Z,100025.41
2023-03-01T13:10:29.541Z,100030.34
2023-03-01T13:12:58.088Z,100021.75
2023-03-01T13:15:24.671Z,100026.63
2023-03-01T13:17:55.803Z,100009.47
2023-03-01T13:20:27.857Z,100000.06
2023-03-01T13:23:22.898Z,100002.09
2023-03-01T13:26:16.194Z,100005.69
2023-03-01T13:28:45.648Z,99996.34
2023-03-01T13:31:26.732Z,99996.50
2023-03-01T13:34:09.466Z,99995.31
2023-03-01T13:36:38.083Z,99986.94
2023-03-01T13:39:28.382Z,99982.59
2023-03-01T13:41:57.215Z,99975.00
2023-03-01T13:44:29.578Z,99973.72
2023-03-01T13:47:08.582Z,99972.78
2023-03-01T13:49:49.337Z,99967.75
2023-03-01T13:52:40.722Z,99962.41
2023-03-01T13:55:50.959Z,99956.69
2023-03-01T13:58:27.497Z,99961.41
2023-03-01T14:01:02.218Z,99958.97
2023-03-01T14:03:33.458Z,99954.03
2023-03-01T14:06:15.226Z,99947.97
2023-03-01T14:08:43.202Z,99960.16
2023-03-01T14:11:48.892Z,99963.81
2023-03-01T14:14:42.357Z,99959.06
2023-03-01T14:17:39.765Z,99953.78
2023-03-01T14:20:30.775Z,99957.03
2023-03-01T14:23:09.898Z,99954.75
2023-03-01T14:25:37.403Z,99950.66
2023-03-01T14:28:23.460Z,99954.69
2023-03-01T14:30:52.702Z,99947.56
2023-03-01T14:33:26.753Z,99949.91
2023-03-01T14:36:08.259Z,99949.09
2023-03-01T14:38:44.087Z,99948.88
2023-03-01T14:41:27.027Z,99935.28
2023-03-01T14:43:59.123Z,99945.38
2023-03-01T14:46:37.910Z,99943.91
2023-03-01T14:49:10.343Z,99940.00
2023-03-01T14:51:41.413Z,99938.16
2023-03-01T14:54:35.684Z,99934.66
2023-03-01T14:57:07.221Z,99935.28
2023-03-01T14:59:35.264Z,99925.78
2023-03-01T15:02:06.752Z,99933.00
2023-03-01T15:07:20.063Z,99928.13
2023-03-01T15:09:50.461Z,99936.53
2023-03-01T15:12:31.113Z,99925.44
2023-03-01T15:15:04.916Z,99922.97
2023-03-01T15:17:35.362Z,99922.16
2023-03-01T15:20:09.124Z,99932.06
2023-03-01T15:22:49.465Z,99926.28
2023-03-01T15:25:18.268Z,99940.06
2023-03-01T15:27:48.967Z,99936.81
2023-03-01T15:30:24.770Z,99931.84
2023-03-01T15:33:25.682Z,99924.00
2023-03-01T15:36:10.557Z,99931.38
2023-03-01T15:38:57.790Z,99928.72
2023-03-01T15:41:28.920Z,99925.63
2023-03-01T15:43:56.773Z,99926.03
2023-03-01T15:46:27.821Z,99923.34
2023-03-01T15:49:08.408Z,99924.16
2023-03-01T15:51:38.437Z,99921.69
2023-03-01T15:54:24.942Z,99923.09
2023-03-01T15:56:53.046Z,99925.81
2023-03-01T15:59:20.030Z,99924.56
2023-03-01T16:01:51.805Z,99925.56
2023-03-01T16:04:28.131Z,99922.44
2023-03-01T16:06:55.252Z,99924.47
2023-03-01T16:09:28.578Z,99924.88
2023-03-01T16:11:57.954Z,99916.22
2023-03-01T16:14:24.632Z,99922.00
2023-03-01T16:16:51.374Z,99917.22
2023-03-01T16:19:19.450Z,99917.59
2023-03-01T16:21:50.378Z,99918.00
2023-03-01T16:24:19.458Z,99921.19
2023-03-01T16:26:50.002Z,99918.72
2023-03-01T16:29:17.210Z,99923.16
2023-03-01T16:31:48.984Z,99923.38
2023-03-01T16:34:18.232Z,99924.75
2023-03-01T16:36:50.246Z,99927.41
2023-03-01T16:39:18.287Z,99925.94
2023-03-01T16:41:50.920Z,99929.00
2023-03-01T16:44:17.751Z,99926.31
2023-03-01T16:46:44.581Z,99928.69
2023-03-01T16:49:11.258Z,99928.25
2023-03-01T16:51:41.061Z,99920.38
2023-03-01T16:54:10.300Z,99931.03
2023-03-01T16:56:42.244Z,99930.03
2023-03-01T16:59:09.017Z,99935.50
2023-03-01T17:01:41.805Z,99933.28
2023-03-01T17:04:14.495Z,99941.28
2023-03-01T17:06:44.343Z,99948.19
2023-03-01T17:09:11.152Z,99942.81
2023-03-01T17:11:38.896Z,99945.09
2023-03-01T17:14:05.639Z,99948.34
2023-03-01T17:16:34.601Z,99951.00
2023-03-01T17:19:05.155Z,99946.88
2023-03-01T17:21:40.871Z,99949.34
2023-03-01T17:24:10.349Z,99957.75
2023-03-01T17:26:41.763Z,99950.13
2023-03-01T17:29:10.660Z,99949.09
2023-03-01T17:31:45.080Z,99951.75
2023-03-01T17:34:16.100Z,99964.47
2023-03-01T17:36:46.848Z,99959.91
2023-03-01T17:39:18.243Z,99954.69
2023-03-01T17:41:49.172Z,99954.88
2023-03-01T17:44:18.999Z,99958.13
2023-03-01T17:46:46.251Z,99958.13
2023-03-01T17:49:17.084Z,99958.50
2023-03-01T17:51:52.162Z,99962.81
2023-03-01T17:54:21.340Z,99945.56
2023-03-01T17:56:51.807Z,99954.13
2023-03-01T17:59:19.996Z,99954.88
2023-03-01T18:01:47.226Z,99958.16
2023-03-01T18:04:32.690Z,99952.38
2023-03-01T18:07:02.278Z,99953.97
2023-03-01T18:09:33.040Z,99953.78
2023-03-01T18:12:03.941Z,99951.88
2023-03-01T18:14:33.933Z,99959.41
2023-03-01T18:17:03.881Z,99959.59
2023-03-01T18:19:35.396Z,99956.31
2023-03-01T18:22:02.100Z,99954.66
2023-03-01T18:24:28.983Z,99957.13
2023-03-01T18:26:55.965Z,99958.53
2023-03-01T18:29:25.236Z,99950.91
2023-03-01T18:32:04.394Z,99954.94
2023-03-01T18:34:35.103Z,99959.66
2023-03-01T18:37:09.489Z,99956.50
2023-03-01T18:39:38.138Z,99949.09
2023-03-01T18:42:06.328Z,99955.25
2023-03-01T18:44:39.276Z,99950.03
2023-03-01T18:47:12.148Z,99950.41
2023-03-01T18:49:39.062Z,99959.69
2023-03-01T18:52:08.269Z,99961.41
2023-03-01T18:54:37.882Z,99958.47
2023-03-01T18:57:09.251Z,99959.50
2023-03-01T18:59:36.494Z,99950.31
2023-03-01T19:02:06.179Z,99951.41
2023-03-01T19:04:33.246Z,99956.09
2023-03-01T19:07:05.076Z,99952.53
2023-03-01T19:09:34.044Z,99951.88
2023-03-01T19:12:03.547Z,99957.56
2023-03-01T19:14:38.736Z,99949.13
2023-03-01T19:17:07.958Z,99950.69
2023-03-01T19:19:36.243Z,99948.41
2023-03-01T19:22:06.121Z,99953.50
2023-03-01T19:24:33.537Z,99949.22
2023-03-01T19:27:00.183Z,99942.47
2023-03-01T19:29:30.131Z,99947.88
2023-03-01T19:31:59.349Z,99944.00
2023-03-01T19:34:26.380Z,99940.22
2023-03-01T19:36:53.397Z,99943.13
2023-03-01T19:39:21.009Z,99940.09
2023-03-01T19:41:50.262Z,99940.25
2023-03-01T19:44:24.999Z,99946.41
2023-03-01T19:46:57.351Z,99939.78
2023-03-01T19:49:30.223Z,99945.50
2023-03-01T19:51:56.873Z,99942.28
2023-03-01T19:54:26.404Z,99940.63
2023-03-01T19:56:56.199Z,99946.56
2023-03-01T19:59:34.182Z,99947.25
2023-03-01T20:02:01.499Z,99944.22
2023-03-01T20:04:30.143Z,99943.69
2023-03-01T20:06:59.548Z,99945.19
2023-03-01T20:09:26.199Z,99937.66
2023-03-01T20:11:53.240Z,99943.81
2023-03-01T20:14:23.695Z,99936.00
2023-03-01T20:16:51.105Z,99945.94
2023-03-01T20:19:20.899Z,99946.22
2023-03-01T20:21:49.910Z,99951.88
2023-03-01T20:24:22.697Z,99960.63
2023-03-01T20:26:51.316Z,99952.53
2023-03-01T20:29:21.169Z,99951.38
2023-03-01T20:31:47.800Z,99953.00
2023-03-01T20:34:27.257Z,99956.31
2023-03-01T20:36:56.829Z,99953.75
2023-03-01T20:39:29.401Z,99953.22
2023-03-01T20:42:01.272Z,99952.41
2023-03-01T20:44:28.969Z,99953.72
2023-03-01T20:46:56.113Z,99955.81
2023-03-01T20:49:40.893Z,99959.94
2023-03-01T20:52:08.459Z,99953.16
2023-03-01T20:54:38.461Z,99963.97
2023-03-01T20:57:06.934Z,99954.00
2023-03-01T20:59:34.939Z,99965.72
2023-03-01T21:02:01.695Z,99963.25
2023-03-01T21:04:28.301Z,99947.66
2023-03-01T21:06:57.373Z,99951.97
2023-03-01T21:09:30.297Z,99954.09
2023-03-01T21:12:03.046Z,99950.25
2023-03-01T21:14:42.343Z,99951.09
2023-03-01T21:17:14.432Z,99952.38
2023-03-01T21:19:46.840Z,99957.69
2023-03-01T21:22:15.297Z,99953.38
2023-03-01T21:24:42.453Z,99945.41
2023-03-01T21:27:11.143Z,99947.06
2023-03-01T21:29:43.868Z,99941.25
2023-03-01T21:32:12.020Z,99949.59
2023-03-01T21:34:44.943Z,99949.06
2023-03-01T21:37:11.948Z,99949.22
2023-03-01T21:39:39.102Z,99948.59
2023-03-01T21:42:07.307Z,99946.66
2023-03-01T21:44:34.294Z,99948.31
2023-03-01T21:47:04.098Z,99945.78
2023-03-01T21:49:30.863Z,99944.41
2023-03-01T21:51:59.081Z,99938.53
2023-03-01T21:54:25.940Z,99945.69
2023-03-01T21:56:55.050Z,99946.03
2023-03-01T21:59:32.495Z,99944.94
2023-03-01T22:02:06.438Z,99938.88
2023-03-01T22:04:34.627Z,99937.97
2023-03-01T22:07:01.268Z,99943.75
2023-03-01T22:09:39.865Z,99936.31
2023-03-01T22:12:06.783Z,99937.50
2023-03-01T22:14:36.159Z,99935.94
2023-03-01T22:17:02.995Z,99933.44
2023-03-01T22:19:30.291Z,99934.31
2023-03-01T22:21:56.942Z,99931.16
2023-03-01T22:24:30.094Z,99935.50
2023-03-01T22:27:02.176Z,99938.50
2023-03-01T22:29:34.409Z,99923.97
2023-03-01T22:32:03.535Z,99930.09
2023-03-01T22:34:35.981Z,99935.47
2023-03-01T22:37:05.346Z,99938.28
2023-03-01T22:39:35.378Z,99936.72
2023-03-01T22:42:06.067Z,99932.16
2023-03-01T22:44:32.753Z,99932.44
2023-03-01T22:47:03.500Z,99934.34
2023-03-01T22:49:36.160Z,99940.75
2023-03-01T22:52:02.977Z,99936.50
2023-03-01T22:54:29.575Z,99931.50
2023-03-01T22:56:56.328Z,99933.94
2023-03-01T22:59:24.071Z,99931.28
2023-03-01T23:01:53.320Z,99929.03
2023-03-01T23:04:26.447Z,99926.97
2023-03-01T23:06:56.112Z,99925.44
2023-03-01T23:09:33.077Z,99921.19
2023-03-01T23:12:06.712Z,99930.81
2023-03-01T23:14:38.711Z,99930.50
2023-03-01T23:17:08.217Z,99934.59
2023-03-01T23:19:38.419Z,99926.69
2023-03-01T23:22:06.672Z,99927.31
2023-03-01T23:24:35.129Z,99926.19
2023-03-01T23:27:02.632Z,99933.50
2023-03-01T23:29:30.146Z,99932.84
2023-03-01T23:31:57.730Z,99945.06
2023-03-01T23:34:30.213Z,99942.84
2023-03-01T23:36:58.656Z,99938.16
2023-03-01T23:39:31.177Z,99943.47
2023-03-01T23:41:58.377Z,99939.66
2023-03-01T23:44:34.136Z,99941.16
2023-03-01T23:47:06.992Z,99940.81
2023-03-01T23:49:36.010Z,99936.13
2023-03-01T23:52:02.699Z,99935.28
2023-03-01T23:54:32.597Z,99927.06
2023-03-01T23:57:02.048Z,99919.09
2023-03-01T23:59:29.726Z,99915.78
